Lazy Lake, Florida
Current Conditions -  °F | °C
As of 6:53 PM on Friday 28 Nov 2014 (Local Time) from KFXE Reporting Station
Few Clouds Few Clouds  
Wind Chill: 62°   Ceiling: Unl
Heat Index: 62°   Visibility: 10mi
Dew Point: 51°   Wind: 9mph
Humidity: 67%   Direction: 340°NNW
Pressure: 30.19"   Gusts: NA
Location:  26.1532°N, 80.1262°W
Report Text: KFXE 282353Z 34008KT 10SM FEW050 17/11 A3019 RMK AO2 SLP225 T01670106 10211 20167 53009
Loading
Personal Weather Stations






























Interactive Weather Map New forecast layout! Learn more

10-Day Weather Forecast

Advertisements
Track Severe Weather on mobile